createdAt,value
2023-05-14T00:00:50.777Z,11.87
2023-05-14T00:03:19.283Z,11.84
2023-05-14T00:05:47.542Z,11.77
2023-05-14T00:08:15.837Z,11.73
2023-05-14T00:10:44.242Z,11.77
2023-05-14T00:13:16.833Z,11.80
2023-05-14T00:15:46.067Z,11.84
2023-05-14T00:18:15.614Z,11.83
2023-05-14T00:20:46.425Z,11.90
2023-05-14T00:23:16.158Z,11.90
2023-05-14T00:25:44.805Z,11.93
2023-05-14T00:28:14.797Z,11.91
2023-05-14T00:30:43.179Z,11.97
2023-05-14T00:33:13.979Z,12.00
2023-05-14T00:35:42.515Z,11.98
2023-05-14T00:38:17.148Z,12.00
2023-05-14T00:40:51.211Z,12.00
2023-05-14T00:43:21.194Z,12.03
2023-05-14T00:45:51.247Z,11.98
2023-05-14T00:48:20.120Z,11.94
2023-05-14T00:50:51.040Z,11.93
2023-05-14T00:53:20.227Z,11.84
2023-05-14T00:55:50.875Z,11.80
2023-05-14T00:58:20.922Z,11.82
2023-05-14T01:00:49.138Z,11.82
2023-05-14T01:03:17.482Z,11.80
2023-05-14T01:05:58.831Z,11.73
2023-05-14T01:08:35.050Z,11.70
2023-05-14T01:11:07.923Z,11.64
2023-05-14T01:13:42.791Z,11.60
2023-05-14T01:16:14.301Z,11.52
2023-05-14T01:18:45.898Z,11.45
2023-05-14T01:21:44.893Z,11.36
2023-05-14T01:24:14.415Z,11.26
2023-05-14T01:26:43.956Z,11.19
2023-05-14T01:29:17.444Z,11.05
2023-05-14T01:31:47.189Z,10.97
2023-05-14T01:34:16.616Z,10.85
2023-05-14T01:36:46.109Z,10.76
2023-05-14T01:39:15.318Z,10.68
2023-05-14T01:41:44.072Z,10.61
2023-05-14T01:44:13.149Z,10.52
2023-05-14T01:46:41.617Z,10.40
2023-05-14T01:49:10.967Z,10.33
2023-05-14T01:51:39.427Z,10.22
2023-05-14T01:54:10.090Z,10.13
2023-05-14T01:56:38.128Z,10.05
2023-05-14T01:59:06.540Z,9.95
2023-05-14T02:01:36.153Z,9.91
2023-05-14T02:04:05.969Z,9.85
2023-05-14T02:06:34.068Z,9.75
2023-05-14T02:09:03.272Z,9.68
2023-05-14T02:11:34.228Z,9.57
2023-05-14T02:14:02.514Z,9.52
2023-05-14T02:16:30.660Z,9.40
2023-05-14T02:19:01.373Z,9.34
2023-05-14T02:21:29.679Z,9.27
2023-05-14T02:23:58.357Z,9.18
2023-05-14T02:26:27.009Z,9.16
2023-05-14T02:28:58.179Z,9.10
2023-05-14T02:31:26.860Z,9.05
2023-05-14T02:33:55.694Z,9.03
2023-05-14T02:36:23.886Z,8.99
2023-05-14T02:38:51.924Z,8.99
2023-05-14T02:41:22.547Z,8.98
2023-05-14T02:43:52.500Z,8.95
2023-05-14T02:46:21.933Z,8.92
2023-05-14T02:48:50.240Z,8.93
2023-05-14T02:51:20.583Z,8.95
2023-05-14T02:53:52.624Z,8.95
2023-05-14T02:56:21.441Z,9.00
2023-05-14T02:58:49.944Z,8.95
2023-05-14T03:01:18.884Z,8.92
2023-05-14T03:03:49.745Z,8.89
2023-05-14T03:06:18.488Z,8.88
2023-05-14T03:08:46.882Z,8.90
2023-05-14T03:11:17.707Z,8.92
2023-05-14T03:13:46.748Z,8.96
2023-05-14T03:16:16.885Z,8.96
2023-05-14T03:18:47.674Z,8.98
2023-05-14T03:21:17.498Z,8.95
2023-05-14T03:23:46.535Z,8.99
2023-05-14T03:26:15.409Z,9.06
2023-05-14T03:28:43.725Z,9.16
2023-05-14T03:31:11.953Z,9.29
2023-05-14T03:33:41.597Z,9.41
2023-05-14T03:36:10.385Z,9.57
2023-05-14T03:38:39.954Z,9.70
2023-05-14T03:41:08.414Z,9.75
2023-05-14T03:43:39.168Z,9.82
2023-05-14T03:46:07.422Z,9.84
2023-05-14T03:48:36.210Z,9.89
2023-05-14T03:51:04.880Z,9.92
2023-05-14T03:53:33.309Z,10.01
2023-05-14T03:56:10.847Z,10.12
2023-05-14T03:58:39.701Z,10.20
2023-05-14T04:01:10.502Z,10.33
2023-05-14T04:03:38.600Z,10.49
2023-05-14T04:06:07.051Z,10.64
2023-05-14T04:08:35.325Z,10.76
2023-05-14T04:11:04.914Z,10.98
2023-05-14T04:13:36.651Z,11.38
2023-05-14T04:16:05.010Z,11.90
2023-05-14T04:18:35.257Z,12.39
2023-05-14T04:21:05.201Z,12.94
2023-05-14T04:23:33.507Z,13.34
2023-05-14T04:26:02.527Z,13.68
2023-05-14T04:28:32.251Z,14.13
2023-05-14T04:31:00.480Z,14.51
2023-05-14T04:33:28.514Z,14.93
2023-05-14T04:35:56.838Z,15.27
2023-05-14T04:38:25.530Z,15.54
2023-05-14T04:40:53.910Z,15.92
2023-05-14T04:43:23.057Z,16.22
2023-05-14T04:45:52.916Z,16.57
2023-05-14T04:48:21.663Z,16.91
2023-05-14T04:50:51.056Z,17.10
2023-05-14T04:53:19.636Z,17.46
2023-05-14T04:55:47.649Z,17.10
2023-05-14T04:58:16.052Z,17.31
2023-05-14T05:00:44.575Z,17.72
2023-05-14T05:03:14.759Z,17.96
2023-05-14T05:05:43.504Z,17.93
2023-05-14T05:08:12.857Z,17.86
2023-05-14T05:10:42.483Z,17.83
2023-05-14T05:13:10.654Z,17.89
2023-05-14T05:15:38.841Z,17.89
2023-05-14T05:18:11.205Z,17.99
2023-05-14T05:20:41.064Z,18.17
2023-05-14T05:23:09.840Z,18.53
2023-05-14T05:25:39.953Z,19.10
2023-05-14T05:28:08.629Z,19.43
2023-05-14T05:30:36.684Z,19.53
2023-05-14T05:33:05.022Z,19.30
2023-05-14T05:35:33.234Z,19.17
2023-05-14T05:38:02.800Z,19.27
2023-05-14T05:40:31.162Z,19.55
2023-05-14T05:42:59.567Z,19.75
2023-05-14T05:45:27.914Z,20.10
2023-05-14T05:47:56.174Z,20.34
2023-05-14T05:50:25.192Z,20.40
2023-05-14T05:52:53.669Z,20.53
2023-05-14T05:55:26.143Z,20.91
2023-05-14T05:57:57.242Z,21.23
2023-05-14T06:00:27.304Z,21.12
2023-05-14T06:02:56.412Z,20.77
2023-05-14T06:05:25.070Z,20.81
2023-05-14T06:07:56.587Z,21.15
2023-05-14T06:10:26.134Z,21.63
2023-05-14T06:12:55.236Z,22.13
2023-05-14T06:15:23.848Z,21.93
2023-05-14T06:17:53.293Z,21.54
2023-05-14T06:20:21.698Z,21.09
2023-05-14T06:22:49.942Z,20.74
2023-05-14T06:25:18.877Z,20.91
2023-05-14T06:27:48.637Z,21.16
2023-05-14T06:30:16.928Z,21.01
2023-05-14T06:32:45.476Z,20.34
2023-05-14T06:35:14.584Z,19.86
2023-05-14T06:37:43.093Z,19.65
2023-05-14T06:40:12.515Z,19.30
2023-05-14T06:42:41.203Z,19.02
2023-05-14T06:45:13.922Z,19.16
2023-05-14T06:47:44.483Z,19.07
2023-05-14T06:50:12.865Z,18.85
2023-05-14T06:52:41.558Z,18.59
2023-05-14T06:55:10.423Z,18.69
2023-05-14T06:57:40.561Z,18.90
2023-05-14T07:00:14.605Z,18.65
2023-05-14T07:02:42.720Z,18.37
2023-05-14T07:05:11.364Z,18.35
2023-05-14T07:07:41.371Z,18.20
2023-05-14T07:10:09.969Z,18.22
2023-05-14T07:12:38.477Z,17.74
2023-05-14T07:15:08.723Z,17.52
2023-05-14T07:17:54.527Z,17.62
2023-05-14T07:20:24.023Z,17.77
2023-05-14T07:22:53.387Z,17.84
2023-05-14T07:25:21.582Z,17.84
2023-05-14T07:27:52.704Z,18.00
2023-05-14T07:30:25.247Z,18.17
2023-05-14T07:32:56.639Z,18.22
2023-05-14T07:35:24.802Z,18.13
2023-05-14T07:37:54.674Z,18.24
2023-05-14T07:40:25.270Z,18.38
2023-05-14T07:42:55.201Z,18.53
2023-05-14T07:45:23.900Z,18.64
2023-05-14T07:47:52.423Z,18.79
2023-05-14T07:50:22.551Z,18.95
2023-05-14T07:52:52.109Z,19.04
2023-05-14T07:55:21.899Z,19.30
2023-05-14T07:57:50.521Z,19.50
2023-05-14T08:00:19.356Z,19.78
2023-05-14T08:02:49.323Z,20.05
2023-05-14T08:05:18.982Z,19.99
2023-05-14T08:07:51.103Z,20.23
2023-05-14T08:10:19.626Z,20.48
2023-05-14T08:12:48.019Z,20.73
2023-05-14T08:15:16.917Z,20.81
2023-05-14T08:17:45.940Z,20.77
2023-05-14T08:20:15.374Z,20.63
2023-05-14T08:22:46.022Z,20.60
2023-05-14T08:25:17.739Z,20.82
2023-05-14T08:27:46.478Z,20.99
2023-05-14T08:30:15.470Z,21.22
2023-05-14T08:32:43.940Z,21.58
2023-05-14T08:35:12.755Z,21.83
2023-05-14T08:37:41.254Z,22.27
2023-05-14T08:40:10.540Z,22.87
2023-05-14T08:42:41.887Z,23.41
2023-05-14T08:45:15.383Z,23.17
2023-05-14T08:47:46.592Z,23.35
2023-05-14T08:50:15.227Z,23.35
2023-05-14T08:52:46.317Z,23.33
2023-05-14T08:55:14.702Z,23.43
2023-05-14T08:57:44.784Z,23.13
2023-05-14T09:00:15.729Z,23.35
2023-05-14T09:02:48.956Z,23.23
2023-05-14T09:05:21.995Z,23.41
2023-05-14T09:07:50.771Z,23.38
2023-05-14T09:10:19.958Z,23.13
2023-05-14T09:12:51.669Z,23.10
2023-05-14T09:15:22.169Z,23.09
2023-05-14T09:17:51.535Z,23.16
2023-05-14T09:20:21.074Z,23.50
2023-05-14T09:22:56.753Z,23.99
2023-05-14T09:25:28.344Z,23.71
2023-05-14T09:27:59.137Z,23.12
2023-05-14T09:30:27.976Z,23.41
2023-05-14T09:32:56.651Z,22.93
2023-05-14T09:35:28.334Z,23.04
2023-05-14T09:37:57.809Z,23.13
2023-05-14T09:40:26.556Z,22.95
2023-05-14T09:42:57.316Z,22.90
2023-05-14T09:45:26.132Z,22.75
2023-05-14T09:47:54.782Z,23.02
2023-05-14T09:50:24.395Z,23.45
2023-05-14T09:52:58.822Z,23.84
2023-05-14T09:55:30.418Z,24.23
2023-05-14T09:58:01.443Z,24.66
2023-05-14T10:00:31.141Z,24.63
2023-05-14T10:03:00.218Z,24.40
2023-05-14T10:05:29.694Z,23.51
2023-05-14T10:07:58.926Z,23.19
2023-05-14T10:10:29.821Z,23.23
2023-05-14T10:13:04.520Z,22.69
2023-05-14T10:15:36.908Z,22.55
2023-05-14T10:18:12.416Z,22.55
2023-05-14T10:20:41.699Z,22.52
2023-05-14T10:23:15.380Z,22.77
2023-05-14T10:25:43.916Z,22.39
2023-05-14T10:28:15.013Z,22.18
2023-05-14T10:30:46.561Z,22.75
2023-05-14T10:33:16.855Z,22.76
2023-05-14T10:35:59.851Z,22.32
2023-05-14T10:38:29.286Z,21.70
2023-05-14T10:40:59.094Z,21.25
2023-05-14T10:43:31.013Z,20.87
2023-05-14T10:46:01.923Z,20.71
2023-05-14T10:48:32.538Z,20.53
2023-05-14T10:51:00.825Z,20.40
2023-05-14T10:53:33.817Z,20.16
2023-05-14T10:56:05.876Z,19.98
2023-05-14T10:58:39.602Z,19.81
2023-05-14T11:01:08.563Z,19.68
2023-05-14T11:03:42.342Z,19.58
2023-05-14T11:06:12.447Z,19.43
2023-05-14T11:08:41.637Z,19.31
2023-05-14T11:11:10.987Z,19.26
2023-05-14T11:13:42.005Z,19.18
2023-05-14T11:16:22.581Z,19.06
2023-05-14T11:19:02.905Z,18.99
2023-05-14T11:21:33.473Z,18.80
2023-05-14T11:24:02.492Z,18.78
2023-05-14T11:26:32.871Z,18.86
2023-05-14T11:29:02.493Z,19.04
2023-05-14T11:31:31.236Z,19.13
2023-05-14T11:34:04.297Z,19.30
2023-05-14T11:36:32.847Z,19.47
2023-05-14T11:39:02.310Z,19.51
2023-05-14T11:41:31.427Z,19.53
2023-05-14T11:44:05.312Z,19.57
2023-05-14T11:46:35.525Z,19.59
2023-05-14T11:49:05.648Z,19.68
2023-05-14T11:51:33.919Z,19.75
2023-05-14T11:54:04.319Z,19.82
2023-05-14T11:56:33.046Z,19.98
2023-05-14T11:59:02.841Z,20.16
2023-05-14T12:01:34.747Z,20.39
2023-05-14T12:04:02.860Z,20.61
2023-05-14T12:06:31.973Z,20.74
2023-05-14T12:09:01.424Z,20.65
2023-05-14T12:11:32.550Z,20.59
2023-05-14T12:14:02.432Z,20.65
2023-05-14T12:16:32.913Z,20.85
2023-05-14T12:19:03.669Z,20.80
2023-05-14T12:21:32.561Z,20.71
2023-05-14T12:24:00.956Z,20.65
2023-05-14T12:26:29.223Z,20.71
2023-05-14T12:28:59.658Z,20.55
2023-05-14T12:31:35.410Z,20.32
2023-05-14T12:34:03.968Z,20.16
2023-05-14T12:36:32.889Z,20.08
2023-05-14T12:39:03.815Z,20.05
2023-05-14T12:41:32.463Z,19.98
2023-05-14T12:44:01.640Z,19.95
2023-05-14T12:46:30.231Z,19.90
2023-05-14T12:48:59.650Z,19.95
2023-05-14T12:51:27.780Z,19.98
2023-05-14T12:53:56.177Z,20.06
2023-05-14T12:56:28.307Z,20.24
2023-05-14T12:58:57.969Z,20.22
2023-05-14T13:01:26.026Z,20.16
2023-05-14T13:03:55.657Z,20.24
2023-05-14T13:06:25.814Z,20.30
2023-05-14T13:08:56.764Z,20.47
2023-05-14T13:11:30.146Z,20.43
2023-05-14T13:13:58.567Z,20.37
2023-05-14T13:16:27.084Z,20.47
2023-05-14T13:18:55.595Z,20.53
2023-05-14T13:21:26.098Z,20.48
2023-05-14T13:23:54.374Z,20.55
2023-05-14T13:26:22.714Z,20.55
2023-05-14T13:28:51.277Z,20.54
2023-05-14T13:31:19.503Z,20.65
2023-05-14T13:33:47.950Z,20.63
2023-05-14T13:36:16.801Z,20.54
2023-05-14T13:38:47.155Z,20.57
2023-05-14T13:41:15.719Z,20.54
2023-05-14T13:43:43.960Z,20.47
2023-05-14T13:46:12.026Z,20.34
2023-05-14T13:48:40.665Z,20.20
2023-05-14T13:51:09.049Z,20.20
2023-05-14T13:53:37.581Z,20.22
2023-05-14T13:56:08.580Z,20.32
2023-05-14T13:58:37.184Z,20.40
2023-05-14T14:01:06.104Z,20.40
2023-05-14T14:03:35.840Z,20.48
2023-05-14T14:06:04.130Z,20.53
2023-05-14T14:08:32.510Z,20.41
2023-05-14T14:11:01.789Z,20.50
2023-05-14T14:13:31.622Z,20.60
2023-05-14T14:15:59.749Z,20.67
2023-05-14T14:18:27.791Z,20.59
2023-05-14T14:20:59.005Z,20.45
2023-05-14T14:23:31.051Z,20.36
2023-05-14T14:26:02.020Z,20.30
2023-05-14T14:28:32.331Z,20.24
2023-05-14T14:31:00.618Z,20.12
2023-05-14T14:33:29.335Z,20.06
2023-05-14T14:35:57.981Z,19.99
2023-05-14T14:38:29.070Z,19.90
2023-05-14T14:41:01.054Z,19.83
2023-05-14T14:43:32.273Z,19.75
2023-05-14T14:46:00.410Z,19.74
2023-05-14T14:48:39.513Z,19.68
2023-05-14T14:51:09.131Z,19.68
2023-05-14T14:53:46.040Z,19.68
2023-05-14T14:56:14.871Z,19.71
2023-05-14T14:58:50.962Z,19.69
2023-05-14T15:01:28.126Z,19.69
2023-05-14T15:04:14.193Z,19.71
2023-05-14T15:06:42.338Z,19.71
2023-05-14T15:09:10.847Z,19.69
2023-05-14T15:12:00.066Z,19.66
2023-05-14T15:14:52.259Z,19.64
2023-05-14T15:17:20.581Z,19.64
2023-05-14T15:19:52.498Z,19.59
2023-05-14T15:22:24.359Z,19.64
2023-05-14T15:24:52.486Z,19.71
2023-05-14T15:27:20.751Z,19.74
2023-05-14T15:29:48.962Z,19.81
2023-05-14T15:32:19.269Z,19.89
2023-05-14T15:34:48.083Z,19.90
2023-05-14T15:37:16.245Z,19.95
2023-05-14T15:39:44.617Z,19.95
2023-05-14T15:42:12.814Z,19.98
2023-05-14T15:44:42.746Z,19.98
2023-05-14T15:47:12.923Z,19.98
2023-05-14T15:49:43.037Z,20.06
2023-05-14T15:54:54.320Z,20.06
2023-05-14T15:57:22.574Z,20.06
2023-05-14T15:59:51.439Z,20.03
2023-05-14T16:02:21.642Z,20.01
2023-05-14T16:04:51.494Z,20.02
2023-05-14T16:07:19.610Z,20.03
2023-05-14T16:09:48.048Z,20.02
2023-05-14T16:12:16.275Z,20.02
2023-05-14T16:14:45.298Z,20.02
2023-05-14T16:17:14.402Z,19.99
2023-05-14T16:19:43.242Z,19.99
2023-05-14T16:22:15.508Z,20.01
2023-05-14T16:24:44.810Z,19.99
2023-05-14T16:27:13.190Z,19.99
2023-05-14T16:29:41.799Z,19.99
2023-05-14T16:32:10.571Z,19.98
2023-05-14T16:34:40.620Z,19.95
2023-05-14T16:37:11.951Z,19.95
2023-05-14T16:39:44.839Z,19.89
2023-05-14T16:42:15.240Z,19.83
2023-05-14T16:44:44.061Z,19.79
2023-05-14T16:47:17.697Z,19.74
2023-05-14T16:49:46.854Z,19.68
2023-05-14T16:52:14.942Z,19.62
2023-05-14T16:54:48.157Z,19.57
2023-05-14T16:57:17.549Z,19.48
2023-05-14T16:59:46.442Z,19.43
2023-05-14T17:02:14.636Z,19.37
2023-05-14T17:04:43.591Z,19.31
2023-05-14T17:07:12.358Z,19.27
2023-05-14T17:09:44.881Z,19.20
2023-05-14T17:12:14.590Z,19.14
2023-05-14T17:14:42.577Z,19.07
2023-05-14T17:17:11.964Z,19.04
2023-05-14T17:19:42.688Z,19.03
2023-05-14T17:22:11.158Z,18.93
2023-05-14T17:24:39.853Z,18.87
2023-05-14T17:27:10.889Z,18.80
2023-05-14T17:29:40.260Z,18.78
2023-05-14T17:32:12.174Z,18.72
2023-05-14T17:34:40.763Z,18.71
2023-05-14T17:37:09.569Z,18.68
2023-05-14T17:39:38.650Z,18.62
2023-05-14T17:42:09.991Z,18.52
2023-05-14T17:44:38.023Z,18.45
2023-05-14T17:47:07.508Z,18.41
2023-05-14T17:49:35.868Z,18.31
2023-05-14T17:52:05.494Z,18.21
2023-05-14T17:54:34.897Z,18.11
2023-05-14T17:57:03.296Z,18.06
2023-05-14T17:59:34.869Z,17.97
2023-05-14T18:02:03.313Z,17.90
2023-05-14T18:04:31.442Z,17.84
2023-05-14T18:07:01.110Z,17.79
2023-05-14T18:09:29.424Z,17.72
2023-05-14T18:11:58.360Z,17.66
2023-05-14T18:14:26.620Z,17.58
2023-05-14T18:16:56.853Z,17.48
2023-05-14T18:19:24.965Z,17.38
2023-05-14T18:21:55.476Z,17.29
2023-05-14T18:24:24.225Z,17.22
2023-05-14T18:26:52.677Z,17.16
2023-05-14T18:29:21.385Z,17.07
2023-05-14T18:31:49.866Z,17.01
2023-05-14T18:34:22.119Z,16.97
2023-05-14T18:36:50.995Z,16.87
2023-05-14T18:39:19.345Z,16.80
2023-05-14T18:41:48.411Z,16.77
2023-05-14T18:44:16.363Z,16.66
2023-05-14T18:46:45.243Z,16.56
2023-05-14T18:49:14.645Z,16.50
2023-05-14T18:51:44.356Z,16.43
2023-05-14T18:54:12.472Z,16.36
2023-05-14T18:56:46.733Z,16.32
2023-05-14T18:59:15.634Z,16.26
2023-05-14T19:01:43.838Z,16.18
2023-05-14T19:04:14.069Z,16.15
2023-05-14T19:06:45.112Z,16.06
2023-05-14T19:09:14.945Z,16.01
2023-05-14T19:11:43.188Z,15.95
2023-05-14T19:14:14.205Z,15.90
2023-05-14T19:16:43.213Z,15.81
2023-05-14T19:19:11.967Z,15.74
2023-05-14T19:21:40.091Z,15.64
2023-05-14T19:24:10.342Z,15.51
2023-05-14T19:26:42.416Z,15.46
2023-05-14T19:29:10.581Z,15.35
2023-05-14T19:31:40.017Z,15.32
2023-05-14T19:34:09.903Z,15.29
2023-05-14T19:36:37.970Z,15.22
2023-05-14T19:39:06.150Z,15.20
2023-05-14T19:41:35.859Z,15.13
2023-05-14T19:44:04.351Z,15.07
2023-05-14T19:46:32.497Z,15.07
2023-05-14T19:49:00.989Z,15.15
2023-05-14T19:51:29.013Z,15.12
2023-05-14T19:53:58.638Z,15.00
2023-05-14T19:56:28.493Z,14.88
2023-05-14T19:59:02.196Z,14.72
2023-05-14T20:01:30.439Z,14.58
2023-05-14T20:03:58.611Z,14.45
2023-05-14T20:06:29.017Z,14.33
2023-05-14T20:08:57.638Z,14.17
2023-05-14T20:11:26.602Z,14.05
2023-05-14T20:13:55.644Z,13.99
2023-05-14T20:16:25.345Z,13.89
2023-05-14T20:18:54.688Z,13.79
2023-05-14T20:21:25.295Z,13.66
2023-05-14T20:23:54.410Z,13.57
2023-05-14T20:26:23.646Z,13.47
2023-05-14T20:28:51.872Z,13.41
2023-05-14T20:31:21.530Z,13.28
2023-05-14T20:33:54.606Z,13.11
2023-05-14T20:36:25.689Z,13.01
2023-05-14T20:38:53.802Z,12.93
2023-05-14T20:41:22.749Z,12.82
2023-05-14T20:43:50.981Z,12.75
2023-05-14T20:46:19.835Z,12.63
2023-05-14T20:48:51.925Z,12.55
2023-05-14T20:51:21.969Z,12.48
2023-05-14T20:53:50.386Z,12.38
2023-05-14T20:56:19.251Z,12.31
2023-05-14T20:58:47.695Z,12.22
2023-05-14T21:01:16.182Z,12.18
2023-05-14T21:03:44.789Z,12.20
2023-05-14T21:06:13.776Z,12.22
2023-05-14T21:08:43.236Z,12.25
2023-05-14T21:11:11.376Z,12.31
2023-05-14T21:13:39.626Z,12.33
2023-05-14T21:16:11.889Z,12.35
2023-05-14T21:18:41.762Z,12.41
2023-05-14T21:21:10.037Z,12.41
2023-05-14T21:23:38.097Z,12.44
2023-05-14T21:26:08.470Z,12.44
2023-05-14T21:28:37.643Z,12.48
2023-05-14T21:31:06.078Z,12.48
2023-05-14T21:33:34.354Z,12.46
2023-05-14T21:36:04.903Z,12.44
2023-05-14T21:38:33.123Z,12.45
2023-05-14T21:41:03.137Z,12.42
2023-05-14T21:43:32.613Z,12.44
2023-05-14T21:46:02.220Z,12.41
2023-05-14T21:48:30.277Z,12.36
2023-05-14T21:50:58.504Z,12.38
2023-05-14T21:53:26.790Z,12.39
2023-05-14T21:55:56.393Z,12.36
2023-05-14T21:58:25.160Z,12.32
2023-05-14T22:00:55.327Z,12.29
2023-05-14T22:03:23.486Z,12.25
2023-05-14T22:05:51.822Z,12.20
2023-05-14T22:08:20.745Z,12.15
2023-05-14T22:10:49.110Z,12.10
2023-05-14T22:13:17.895Z,12.05
2023-05-14T22:15:46.773Z,12.00
2023-05-14T22:18:19.335Z,11.98
2023-05-14T22:20:48.039Z,11.94
2023-05-14T22:23:16.410Z,11.91
2023-05-14T22:25:44.827Z,11.87
2023-05-14T22:28:13.390Z,11.80
2023-05-14T22:30:41.495Z,11.79
2023-05-14T22:33:11.790Z,11.79
2023-05-14T22:35:43.881Z,11.77
2023-05-14T22:38:13.276Z,11.71
2023-05-14T22:40:41.620Z,11.69
2023-05-14T22:43:10.501Z,11.57
2023-05-14T22:45:38.604Z,11.53
2023-05-14T22:48:07.183Z,11.47
2023-05-14T22:50:35.309Z,11.38
2023-05-14T22:53:05.641Z,11.32
2023-05-14T22:55:34.075Z,11.24
2023-05-14T22:58:02.743Z,11.14
2023-05-14T23:00:30.890Z,11.07
2023-05-14T23:02:59.866Z,11.02
2023-05-14T23:05:29.629Z,10.91
2023-05-14T23:07:57.952Z,10.88
2023-05-14T23:10:35.298Z,10.80
2023-05-14T23:13:04.588Z,10.70
2023-05-14T23:15:36.707Z,10.66
2023-05-14T23:18:04.969Z,10.59
2023-05-14T23:20:33.576Z,10.52
2023-05-14T23:23:01.578Z,10.49
2023-05-14T23:25:33.218Z,10.45
2023-05-14T23:28:01.777Z,10.42
2023-05-14T23:30:31.441Z,10.40
2023-05-14T23:33:00.706Z,10.36
2023-05-14T23:35:28.962Z,10.27
2023-05-14T23:37:58.168Z,10.22
2023-05-14T23:40:26.326Z,10.15
2023-05-14T23:42:56.164Z,10.13
2023-05-14T23:45:24.463Z,10.08
2023-05-14T23:47:52.787Z,10.01
2023-05-14T23:50:21.574Z,9.95
2023-05-14T23:52:50.447Z,9.92
2023-05-14T23:55:18.954Z,9.85
2023-05-14T23:57:49.593Z,9.82
